Lackey, Kentucky
Current Conditions -  °F | °C
As of 9:35 AM on Friday 28 Nov 2014 (Local Time) from KPBX Reporting Station
Overcast Overcast  
Wind Chill: 22°   Ceiling: 2900
Heat Index: 27°   Visibility: 10mi
Dew Point: 16°   Wind: 5mph
Humidity: 64%   Direction: 290°WNW
Pressure: 30.38"   Gusts: NA
Location:  37.47°N, 82.83°W
Report Text: KPBX 281435Z AUTO 29004KT 10SM OVC029 M03/M09 A3038 RMK AO2 T10281088
Loading
Personal Weather Stations






























Interactive Weather Map New forecast layout! Learn more

10-Day Weather Forecast

Advertisements
Track Severe Weather on mobile